Time,TemperatureF,DewpointF,PressureIn,WindDirection,WindDirectionDegrees,WindSpeedMPH,WindSpeedGustMPH,Humidity,HourlyPrecipIn,Conditions,Clouds,dailyrainin,SoftwareType,DateUTC
2013-03-02 00:00:00,29.1,26.0,29.64,SSE,150,2.0,2.0,88,0.00,,,0.00,Wunderground v.1.13,2013-03-02 05:00:00,
2013-03-02 00:30:00,29.3,26.7,29.64,SE,130,1.0,1.0,90,0.00,,,0.00,Wunderground v.1.13,2013-03-02 05:30:00,
2013-03-02 01:00:00,29.4,27.4,29.64,ENE,73,1.0,5.0,92,0.00,,,0.00,Wunderground v.1.13,2013-03-02 06:00:00,
2013-03-02 01:30:00,29.5,28.0,29.63,East,89,2.0,2.0,94,0.00,,,0.00,Wunderground v.1.13,2013-03-02 06:30:00,
2013-03-02 02:00:00,29.7,28.4,29.63,SSE,151,1.0,1.0,95,0.00,,,0.00,Wunderground v.1.13,2013-03-02 07:00:00,
2013-03-02 02:30:00,29.8,29.1,29.63,SSE,160,1.0,1.0,97,0.00,,,0.00,Wunderground v.1.13,2013-03-02 07:30:00,
2013-03-02 03:00:00,30.0,29.5,29.62,SSE,150,2.0,2.0,98,0.00,,,0.00,Wunderground v.1.13,2013-03-02 08:00:00,
2013-03-02 03:30:00,30.0,29.3,29.62,SE,137,2.0,2.0,97,0.00,,,0.00,Wunderground v.1.13,2013-03-02 08:30:00,
2013-03-02 04:00:00,30.3,29.8,29.62,SE,138,1.0,1.0,98,0.00,,,0.00,Wunderground v.1.13,2013-03-02 09:00:00,
2013-03-02 04:30:00,30.6,30.4,29.62,SE,140,1.0,1.0,99,0.00,,,0.00,Wunderground v.1.13,2013-03-02 09:30:00,
2013-03-02 05:00:00,30.7,30.7,29.62,ESE,116,1.0,1.0,100,0.00,,,0.00,Wunderground v.1.13,2013-03-02 10:00:00,
2013-03-02 05:30:00,30.9,30.1,29.63,South,176,1.0,1.0,97,0.00,,,0.00,Wunderground v.1.13,2013-03-02 10:30:00,
2013-03-02 06:00:00,30.9,30.1,29.63,SE,124,1.0,2.0,97,0.00,,,0.00,Wunderground v.1.13,2013-03-02 11:00:00,
2013-03-02 06:30:00,31.2,30.4,29.63,South,175,2.0,6.0,97,0.00,,,0.00,Wunderground v.1.13,2013-03-02 11:30:00,
2013-03-02 07:00:00,31.5,30.7,29.63,ESE,116,2.0,2.0,97,0.00,,,0.00,Wunderground v.1.13,2013-03-02 12:00:00,
2013-03-02 07:30:00,32.1,31.3,29.64,ESE,119,1.0,1.0,97,0.00,,,0.00,Wunderground v.1.13,2013-03-02 12:30:00,
2013-03-02 08:00:00,32.7,31.2,29.64,SSE,148,2.0,2.0,94,0.00,,,0.00,Wunderground v.1.13,2013-03-02 13:00:00,
2013-03-02 08:30:00,33.1,30.2,29.64,East,100,2.0,2.0,89,0.00,,,0.00,Wunderground v.1.13,2013-03-02 13:30:00,
2013-03-02 09:00:00,33.7,30.2,29.64,SE,136,3.0,3.0,87,0.00,,,0.00,Wunderground v.1.13,2013-03-02 14:00:00,
2013-03-02 09:30:00,34.4,30.6,29.64,ESE,113,3.0,3.0,86,0.00,,,0.00,Wunderground v.1.13,2013-03-02 14:30:00,
2013-03-02 10:00:00,35.5,31.4,29.64,ESE,110,3.0,6.0,85,0.00,,,0.00,Wunderground v.1.13,2013-03-02 15:00:00,
2013-03-02 10:30:00,36.0,32.5,29.64,SE,130,3.0,3.0,87,0.00,,,0.00,Wunderground v.1.13,2013-03-02 15:30:00,
2013-03-02 11:00:00,36.5,33.6,29.64,SE,141,2.0,2.0,89,0.00,,,0.00,Wunderground v.1.13,2013-03-02 16:00:00,
2013-03-02 11:30:00,36.5,34.1,29.64,SSE,152,2.0,2.0,91,0.00,,,0.00,Wunderground v.1.13,2013-03-02 16:30:00,
2013-03-02 12:00:00,36.8,34.1,29.64,SE,141,2.0,4.0,90,0.00,,,0.00,Wunderground v.1.13,2013-03-02 17:00:00,
2013-03-02 12:30:00,36.5,33.3,29.64,East,100,3.0,3.0,88,0.00,,,0.00,Wunderground v.1.13,2013-03-02 17:30:00,
2013-03-02 13:25:00,37.2,33.4,29.64,SE,133,3.0,3.0,86,0.00,,,0.00,Wunderground v.1.13,2013-03-02 18:25:00,
2013-03-02 14:00:00,37.6,33.8,29.64,ESE,119,3.0,7.0,86,0.00,,,0.00,Wunderground v.1.13,2013-03-02 19:00:00,
2013-03-02 14:30:00,37.2,34.5,29.64,South,176,3.0,3.0,90,0.00,,,0.00,Wunderground v.1.13,2013-03-02 19:30:00,
2013-03-02 15:00:00,37.2,33.7,29.64,ESE,110,3.0,3.0,87,0.00,,,0.00,Wunderground v.1.13,2013-03-02 20:00:00,
2013-03-02 15:30:00,36.8,33.3,29.65,ESE,114,2.0,2.0,87,0.00,,,0.00,Wunderground v.1.13,2013-03-02 20:30:00,
2013-03-02 16:00:00,36.5,33.0,29.65,SSE,148,2.0,2.0,87,0.00,,,0.00,Wunderground v.1.13,2013-03-02 21:00:00,
2013-03-02 16:30:00,36.2,33.0,29.66,SE,145,1.0,1.0,88,0.00,,,0.00,Wunderground v.1.13,2013-03-02 21:30:00,
2013-03-02 17:00:00,35.6,32.7,29.66,SSE,158,0.0,1.0,89,0.00,,,0.00,Wunderground v.1.13,2013-03-02 22:00:00,
2013-03-02 17:30:00,35.5,32.9,29.67,SE,124,1.0,1.0,90,0.00,,,0.00,Wunderground v.1.13,2013-03-02 22:30:00,
2013-03-02 18:00:00,35.2,32.3,29.68,ESE,120,1.0,1.0,89,0.00,,,0.00,Wunderground v.1.13,2013-03-02 23:00:00,
2013-03-02 18:30:00,35.2,32.6,29.68,SE,128,0.0,0.0,90,0.00,,,0.00,Wunderground v.1.13,2013-03-02 23:30:00,
2013-03-02 19:00:00,35.2,32.8,29.68,East,96,1.0,1.0,91,0.00,,,0.00,Wunderground v.1.13,2013-03-03 00:00:00,
2013-03-02 19:30:00,35.2,32.8,29.67,SE,128,0.0,0.0,91,0.00,,,0.00,Wunderground v.1.13,2013-03-03 00:30:00,
2013-03-02 20:00:00,35.3,32.9,29.68,SE,130,1.0,1.0,91,0.00,,,0.00,Wunderground v.1.13,2013-03-03 01:00:00,
2013-03-02 20:30:00,35.2,32.6,29.67,East,85,0.0,0.0,90,0.00,,,0.00,Wunderground v.1.13,2013-03-03 01:30:00,
2013-03-02 21:00:00,35.2,32.6,29.67,SE,130,1.0,1.0,90,0.00,,,0.00,Wunderground v.1.13,2013-03-03 02:00:00,
2013-03-02 21:30:00,35.0,32.4,29.66,East,96,0.0,0.0,90,0.00,,,0.00,Wunderground v.1.13,2013-03-03 02:30:00,
2013-03-02 22:00:00,35.0,32.4,29.65,East,96,0.0,0.0,90,0.00,,,0.00,Wunderground v.1.13,2013-03-03 03:00:00,
2013-03-02 22:30:00,35.0,32.4,29.64,East,100,1.0,2.0,90,0.00,,,0.00,Wunderground v.1.13,2013-03-03 03:30:00,
2013-03-02 23:00:00,35.0,32.4,29.63,East,100,0.0,0.0,90,0.00,,,0.00,Wunderground v.1.13,2013-03-03 04:00:00,
2013-03-02 23:30:00,35.0,32.6,29.63,ESE,103,1.0,1.0,91,0.00,,,0.00,Wunderground v.1.13,2013-03-03 04:30:00,